AUA64C LDDU-LOWW
Flight info
| Callsign | AUA64C |
|---|---|
| Flight time | 1h 1m |
| Altitude | 38000 |
| Route | MADOS1W/11 MADOS L187 GEBNI DCT OBUTI OBUTI2W |
| Aircraft | A320/M-SDE3FGHIRWY/LB1 |
Departure
| Time | 2026-04-30 17:48 |
|---|---|
| Airport | Dubrovnik Ruđer Bošković Airport (LDDU) |
Arrival
| Time | 2026-04-30 18:49 |
|---|---|
| Airport | Vienna International Airport (LOWW) |
| Time | Latitude | Longitude | Altitude | Speed | Heading |
|---|---|---|---|---|---|
| 2026-04-30 17:39 | 42.56110 | 18.26249 | 507 ft | 0 kts | 209° |
| 2026-04-30 17:41 | 42.56146 | 18.26329 | 534 ft | 0 kts | 298° |
| 2026-04-30 17:44 | 42.56263 | 18.26035 | 534 ft | 17 kts | 298° |
| 2026-04-30 17:44 | 42.56437 | 18.25601 | 534 ft | 23 kts | 298° |
| 2026-04-30 17:46 | 42.56806 | 18.24690 | 534 ft | 6 kts | 319° |
| 2026-04-30 17:47 | 42.56669 | 18.25488 | 534 ft | 102 kts | 119° |
| 2026-04-30 17:48 | 42.54608 | 18.30693 | 2633 ft | 176 kts | 112° |
| 2026-04-30 17:48 | 42.51864 | 18.35507 | 4048 ft | 259 kts | 144° |
| 2026-04-30 17:49 | 42.44673 | 18.35002 | 7852 ft | 289 kts | 223° |
| 2026-04-30 17:50 | 42.41598 | 18.25610 | 11066 ft | 307 kts | 292° |
| 2026-04-30 17:51 | 42.47013 | 18.20741 | 12461 ft | 346 kts | 350° |
| 2026-04-30 17:52 | 42.54233 | 18.19082 | 14825 ft | 356 kts | 350° |
| 2026-04-30 17:53 | 42.66733 | 18.16203 | 18291 ft | 373 kts | 348° |
| 2026-04-30 17:54 | 42.77129 | 18.13772 | 20631 ft | 384 kts | 348° |
| 2026-04-30 17:55 | 42.87466 | 18.09517 | 22856 ft | 393 kts | 338° |
| 2026-04-30 17:56 | 42.97903 | 18.04435 | 24718 ft | 403 kts | 338° |
| 2026-04-30 17:57 | 43.05916 | 18.00502 | 25932 ft | 412 kts | 338° |
| 2026-04-30 17:58 | 43.14070 | 17.96493 | 27118 ft | 419 kts | 338° |
| 2026-04-30 17:59 | 43.25134 | 17.91030 | 28683 ft | 425 kts | 338° |
| 2026-04-30 18:00 | 43.36383 | 17.85472 | 30223 ft | 430 kts | 338° |
| 2026-04-30 18:00 | 43.44753 | 17.81308 | 31348 ft | 428 kts | 337° |
| 2026-04-30 18:01 | 43.50395 | 17.78495 | 32123 ft | 429 kts | 337° |
| 2026-04-30 18:02 | 43.58790 | 17.74298 | 32254 ft | 427 kts | 337° |
| 2026-04-30 18:02 | 43.67133 | 17.70124 | 32279 ft | 428 kts | 337° |
| 2026-04-30 18:04 | 43.83920 | 17.61687 | 32314 ft | 428 kts | 338° |
| 2026-04-30 18:06 | 44.06313 | 17.50353 | 32323 ft | 428 kts | 338° |
| 2026-04-30 18:08 | 44.25923 | 17.40333 | 32333 ft | 430 kts | 338° |
| 2026-04-30 18:10 | 44.48396 | 17.28774 | 32340 ft | 430 kts | 339° |
| 2026-04-30 18:11 | 44.68044 | 17.18601 | 32334 ft | 430 kts | 339° |
| 2026-04-30 18:13 | 44.82028 | 17.11314 | 32334 ft | 430 kts | 339° |
| 2026-04-30 18:14 | 44.96097 | 17.03939 | 32340 ft | 431 kts | 339° |
| 2026-04-30 18:15 | 45.12949 | 16.95036 | 32340 ft | 431 kts | 339° |
| 2026-04-30 18:16 | 45.24192 | 16.89092 | 32339 ft | 431 kts | 339° |
| 2026-04-30 18:17 | 45.29815 | 16.86109 | 32340 ft | 431 kts | 339° |
| 2026-04-30 18:18 | 45.38243 | 16.81613 | 32343 ft | 431 kts | 340° |
| 2026-04-30 18:18 | 45.43864 | 16.78606 | 32347 ft | 431 kts | 340° |
| 2026-04-30 18:19 | 45.49480 | 16.75595 | 32354 ft | 431 kts | 340° |
| 2026-04-30 18:19 | 45.54150 | 16.73086 | 32353 ft | 431 kts | 340° |
| 2026-04-30 18:20 | 45.59764 | 16.70058 | 32357 ft | 431 kts | 340° |
| 2026-04-30 18:20 | 45.66295 | 16.66552 | 32358 ft | 431 kts | 340° |
| 2026-04-30 18:21 | 45.71004 | 16.64020 | 32346 ft | 431 kts | 340° |
| 2026-04-30 18:21 | 45.76615 | 16.60985 | 32366 ft | 431 kts | 340° |
| 2026-04-30 18:22 | 45.82223 | 16.57942 | 32366 ft | 431 kts | 340° |
| 2026-04-30 18:22 | 45.90630 | 16.53376 | 32364 ft | 430 kts | 341° |
| 2026-04-30 18:23 | 45.93515 | 16.52299 | 32372 ft | 429 kts | 353° |
| 2026-04-30 18:23 | 45.96480 | 16.51846 | 32369 ft | 429 kts | 356° |
| 2026-04-30 18:23 | 46.02382 | 16.52392 | 32379 ft | 428 kts | 5° |
| 2026-04-30 18:24 | 46.11321 | 16.53560 | 32372 ft | 428 kts | 5° |
| 2026-04-30 18:25 | 46.17251 | 16.54364 | 32348 ft | 428 kts | 5° |
| 2026-04-30 18:25 | 46.26117 | 16.55596 | 32372 ft | 426 kts | 6° |
| 2026-04-30 18:26 | 46.34945 | 16.56807 | 32381 ft | 424 kts | 6° |
| 2026-04-30 18:27 | 46.43757 | 16.58033 | 32391 ft | 424 kts | 6° |
| 2026-04-30 18:27 | 46.46696 | 16.58442 | 32055 ft | 425 kts | 6° |
| 2026-04-30 18:28 | 46.52572 | 16.59260 | 30742 ft | 424 kts | 6° |
| 2026-04-30 18:28 | 46.55514 | 16.59669 | 30012 ft | 425 kts | 6° |
| 2026-04-30 18:28 | 46.61424 | 16.60486 | 28478 ft | 429 kts | 6° |
| 2026-04-30 18:29 | 46.64400 | 16.60902 | 27745 ft | 430 kts | 6° |
| 2026-04-30 18:29 | 46.73377 | 16.62157 | 25649 ft | 432 kts | 6° |
| 2026-04-30 18:30 | 46.79266 | 16.62977 | 24340 ft | 424 kts | 6° |
| 2026-04-30 18:30 | 46.85067 | 16.63798 | 22911 ft | 414 kts | 7° |
| 2026-04-30 18:31 | 46.87924 | 16.64207 | 22182 ft | 410 kts | 7° |
| 2026-04-30 18:31 | 46.93557 | 16.65004 | 20769 ft | 403 kts | 7° |
| 2026-04-30 18:32 | 46.99087 | 16.65777 | 19421 ft | 396 kts | 7° |
| 2026-04-30 18:32 | 47.01820 | 16.66160 | 18768 ft | 393 kts | 7° |
| 2026-04-30 18:32 | 47.07214 | 16.66918 | 17318 ft | 386 kts | 7° |
| 2026-04-30 18:33 | 47.09873 | 16.67295 | 16608 ft | 382 kts | 7° |
| 2026-04-30 18:33 | 47.15118 | 16.68044 | 15222 ft | 375 kts | 7° |
| 2026-04-30 18:33 | 47.17703 | 16.68414 | 14559 ft | 372 kts | 7° |
| 2026-04-30 18:34 | 47.20266 | 16.68782 | 13869 ft | 369 kts | 7° |
| 2026-04-30 18:34 | 47.25332 | 16.69508 | 12433 ft | 363 kts | 7° |
| 2026-04-30 18:34 | 47.27835 | 16.69866 | 11734 ft | 360 kts | 7° |
| 2026-04-30 18:35 | 47.30320 | 16.70220 | 11056 ft | 357 kts | 7° |
| 2026-04-30 18:35 | 47.32785 | 16.70572 | 10532 ft | 355 kts | 7° |
| 2026-04-30 18:35 | 47.35238 | 16.70922 | 10366 ft | 350 kts | 7° |
| 2026-04-30 18:36 | 47.39772 | 16.71567 | 10379 ft | 306 kts | 7° |
| 2026-04-30 18:36 | 47.41831 | 16.71861 | 10379 ft | 288 kts | 7° |
| 2026-04-30 18:36 | 47.45655 | 16.72413 | 10379 ft | 271 kts | 7° |
| 2026-04-30 18:37 | 47.47526 | 16.72685 | 10380 ft | 270 kts | 7° |
| 2026-04-30 18:37 | 47.49396 | 16.72958 | 10382 ft | 270 kts | 7° |
| 2026-04-30 18:37 | 47.51265 | 16.73230 | 10380 ft | 270 kts | 7° |
| 2026-04-30 18:37 | 47.53134 | 16.73501 | 10368 ft | 270 kts | 7° |
| 2026-04-30 18:38 | 47.54997 | 16.73770 | 10272 ft | 268 kts | 7° |
| 2026-04-30 18:38 | 47.56846 | 16.74035 | 9855 ft | 267 kts | 7° |
| 2026-04-30 18:38 | 47.58690 | 16.74302 | 9447 ft | 265 kts | 7° |
| 2026-04-30 18:38 | 47.60523 | 16.74570 | 9046 ft | 264 kts | 7° |
| 2026-04-30 18:39 | 47.62345 | 16.74834 | 8633 ft | 263 kts | 7° |
| 2026-04-30 18:39 | 47.63912 | 16.75061 | 8288 ft | 261 kts | 7° |
| 2026-04-30 18:39 | 47.65716 | 16.75323 | 7881 ft | 260 kts | 7° |
| 2026-04-30 18:39 | 47.67510 | 16.75580 | 7493 ft | 258 kts | 5° |
| 2026-04-30 18:40 | 47.69303 | 16.75481 | 7175 ft | 260 kts | 352° |
| 2026-04-30 18:40 | 47.71052 | 16.74823 | 6819 ft | 259 kts | 346° |
| 2026-04-30 18:40 | 47.72782 | 16.74100 | 6450 ft | 257 kts | 346° |
| 2026-04-30 18:40 | 47.74498 | 16.73391 | 6083 ft | 255 kts | 346° |
| 2026-04-30 18:41 | 47.76201 | 16.72690 | 5721 ft | 253 kts | 346° |
| 2026-04-30 18:41 | 47.77887 | 16.71996 | 5359 ft | 250 kts | 346° |
| 2026-04-30 18:41 | 47.79558 | 16.71308 | 4996 ft | 248 kts | 346° |
| 2026-04-30 18:41 | 47.81211 | 16.70626 | 4627 ft | 244 kts | 346° |
| 2026-04-30 18:42 | 47.82834 | 16.69955 | 4265 ft | 240 kts | 346° |
| 2026-04-30 18:42 | 47.85997 | 16.68650 | 3701 ft | 227 kts | 346° |
| 2026-04-30 18:42 | 47.87480 | 16.68046 | 3564 ft | 215 kts | 346° |
| 2026-04-30 18:45 | 47.99513 | 16.63076 | 2544 ft | 152 kts | 347° |
| 2026-04-30 18:45 | 48.00519 | 16.62653 | 2355 ft | 149 kts | 347° |
| 2026-04-30 18:45 | 48.01507 | 16.62238 | 2145 ft | 146 kts | 347° |
| 2026-04-30 18:46 | 48.02462 | 16.61843 | 2003 ft | 137 kts | 347° |
| 2026-04-30 18:46 | 48.03366 | 16.61457 | 1744 ft | 133 kts | 346° |
| 2026-04-30 18:46 | 48.04255 | 16.61081 | 1471 ft | 133 kts | 347° |
| 2026-04-30 18:46 | 48.05145 | 16.60710 | 1322 ft | 134 kts | 346° |
| 2026-04-30 18:47 | 48.06055 | 16.60323 | 1179 ft | 137 kts | 346° |
| 2026-04-30 18:47 | 48.06981 | 16.59930 | 1001 ft | 139 kts | 346° |
| 2026-04-30 18:47 | 48.07926 | 16.59530 | 828 ft | 143 kts | 346° |
| 2026-04-30 18:47 | 48.08871 | 16.59131 | 664 ft | 140 kts | 345° |
| 2026-04-30 18:48 | 48.09739 | 16.58768 | 631 ft | 113 kts | 345° |
| 2026-04-30 18:48 | 48.10405 | 16.58490 | 617 ft | 89 kts | 345° |
| 2026-04-30 18:48 | 48.10947 | 16.58258 | 610 ft | 73 kts | 344° |
| 2026-04-30 18:48 | 48.11375 | 16.58083 | 615 ft | 56 kts | 345° |
| 2026-04-30 18:49 | 48.11704 | 16.57939 | 617 ft | 39 kts | 342° |
| 2026-04-30 18:49 | 48.11855 | 16.57776 | 603 ft | 24 kts | 289° |
| 2026-04-30 18:49 | 48.11841 | 16.57579 | 603 ft | 19 kts | 255° |
| 2026-04-30 18:49 | 48.11808 | 16.57375 | 603 ft | 20 kts | 270° |
| 2026-04-30 18:50 | 48.11848 | 16.57231 | 602 ft | 14 kts | 294° |
| 2026-04-30 18:50 | 48.11866 | 16.57112 | 601 ft | 9 kts | 292° |
| 2026-04-30 18:50 | 48.11894 | 16.57027 | 600 ft | 9 kts | 297° |
| 2026-04-30 18:50 | 48.11923 | 16.56942 | 599 ft | 9 kts | 297° |
| 2026-04-30 18:51 | 48.11936 | 16.56875 | 599 ft | 6 kts | 255° |
| 2026-04-30 18:51 | 48.11909 | 16.56843 | 599 ft | 4 kts | 206° |
| 2026-04-30 18:51 | 48.11891 | 16.56834 | 600 ft | 2 kts | 202° |
| 2026-04-30 18:51 | 48.11886 | 16.56830 | 600 ft | 1 kts | 204° |
| 2026-04-30 18:52 | 48.11883 | 16.56828 | 600 ft | 0 kts | 204° |